createdAt,value
2017-08-01T00:00:02.033Z,808.27
2017-08-01T00:00:06.388Z,808.3
2017-08-01T00:00:10.865Z,808.3
2017-08-01T00:00:15.340Z,808.29
2017-08-01T00:00:19.677Z,808.29
2017-08-01T00:00:24.009Z,808.3
2017-08-01T00:00:28.366Z,808.3
2017-08-01T00:00:32.717Z,808.32
2017-08-01T00:00:37.181Z,808.3
2017-08-01T00:00:41.662Z,808.29
2017-08-01T00:00:46.002Z,808.33
2017-08-01T00:00:50.491Z,808.31
2017-08-01T00:00:54.951Z,808.32
2017-08-01T00:00:59.304Z,808.33
2017-08-01T00:01:03.533Z,808.34
2017-08-01T00:01:07.867Z,808.31
2017-08-01T00:01:12.204Z,808.3
2017-08-01T00:01:16.672Z,808.33
2017-08-01T00:01:21.136Z,808.29
2017-08-01T00:01:25.593Z,808.31
2017-08-01T00:01:30.061Z,808.32
2017-08-01T00:01:34.313Z,808.31
2017-08-01T00:01:38.660Z,808.33
2017-08-01T00:01:43.001Z,808.32
2017-08-01T00:01:47.464Z,808.33
2017-08-01T00:01:51.927Z,808.31
2017-08-01T00:01:56.396Z,808.34
2017-08-01T00:02:00.738Z,808.34
2017-08-01T00:02:05.091Z,808.32
2017-08-01T00:02:09.557Z,808.33
2017-08-01T00:02:13.894Z,808.34
2017-08-01T00:02:18.247Z,808.35
2017-08-01T00:02:22.705Z,808.34
2017-08-01T00:02:27.178Z,808.32
2017-08-01T00:02:31.625Z,808.34
2017-08-01T00:02:35.839Z,808.35
2017-08-01T00:02:40.300Z,808.33
2017-08-01T00:02:44.753Z,808.31
2017-08-01T00:02:49.222Z,808.37
2017-08-01T00:02:53.678Z,808.33
2017-08-01T00:02:58.037Z,808.35
2017-08-01T00:03:02.669Z,808.35
2017-08-01T00:03:07.139Z,808.37
2017-08-01T00:03:11.594Z,808.37
2017-08-01T00:03:16.086Z,808.37
2017-08-01T00:03:20.431Z,808.34
2017-08-01T00:03:24.659Z,808.34
2017-08-01T00:03:29.119Z,808.36
2017-08-01T00:03:33.356Z,808.38
2017-08-01T00:03:37.811Z,808.36
2017-08-01T00:03:42.264Z,808.36
2017-08-01T00:03:46.719Z,808.31
2017-08-01T00:03:51.073Z,808.39
2017-08-01T00:03:55.541Z,808.37
2017-08-01T00:03:59.899Z,808.35
2017-08-01T00:04:04.371Z,808.35
2017-08-01T00:04:08.850Z,808.35
2017-08-01T00:04:13.215Z,808.33
2017-08-01T00:04:17.663Z,808.34
2017-08-01T00:04:22.126Z,808.36
2017-08-01T00:04:26.598Z,808.3
2017-08-01T00:04:30.934Z,808.35
2017-08-01T00:04:35.291Z,808.3
2017-08-01T00:04:39.755Z,808.37
2017-08-01T00:04:44.231Z,808.34
2017-08-01T00:04:48.697Z,808.37
2017-08-01T00:04:53.169Z,808.34
2017-08-01T00:04:57.531Z,808.36
2017-08-01T00:05:01.892Z,808.38
2017-08-01T00:05:06.288Z,808.36
2017-08-01T00:05:10.745Z,808.37
2017-08-01T00:05:15.217Z,808.32
2017-08-01T00:05:19.560Z,808.32
2017-08-01T00:05:24.035Z,808.33
2017-08-01T00:05:28.607Z,808.36
2017-08-01T00:05:32.851Z,808.36
2017-08-01T00:05:37.078Z,808.36
2017-08-01T00:05:41.406Z,808.32
2017-08-01T00:05:45.874Z,808.34
2017-08-01T00:05:50.123Z,808.36
2017-08-01T00:05:54.577Z,808.36
2017-08-01T00:05:58.920Z,808.35
2017-08-01T00:06:03.613Z,808.31
2017-08-01T00:06:07.979Z,808.3
2017-08-01T00:06:12.326Z,808.33
2017-08-01T00:06:16.680Z,808.33
2017-08-01T00:06:21.156Z,808.33
2017-08-01T00:06:25.630Z,808.32
2017-08-01T00:06:30.091Z,808.33
2017-08-01T00:06:34.550Z,808.32
2017-08-01T00:06:39.017Z,808.27
2017-08-01T00:06:43.362Z,808.28
2017-08-01T00:06:47.822Z,808.35
2017-08-01T00:06:52.289Z,808.31
2017-08-01T00:06:56.737Z,808.34
2017-08-01T00:07:01.228Z,808.34
2017-08-01T00:07:05.674Z,808.3
2017-08-01T00:07:10.119Z,808.32
2017-08-01T00:07:14.590Z,808.33
2017-08-01T00:07:18.954Z,808.32
2017-08-01T00:07:23.422Z,808.33
2017-08-01T00:07:27.659Z,808.35
2017-08-01T00:07:32.019Z,808.35
2017-08-01T00:07:36.271Z,808.32
2017-08-01T00:07:40.736Z,808.31
2017-08-01T00:07:45.183Z,808.33
2017-08-01T00:07:49.514Z,808.33
2017-08-01T00:07:53.895Z,808.32
2017-08-01T00:07:58.235Z,808.34
2017-08-01T00:08:02.992Z,808.31
2017-08-01T00:08:07.339Z,808.33
2017-08-01T00:08:11.694Z,808.34
2017-08-01T00:08:16.034Z,808.32
2017-08-01T00:08:20.383Z,808.31
2017-08-01T00:08:24.850Z,808.31
2017-08-01T00:08:29.078Z,808.32
2017-08-01T00:08:33.410Z,808.34
2017-08-01T00:08:37.759Z,808.33
2017-08-01T00:08:42.143Z,808.29
2017-08-01T00:08:46.596Z,808.33
2017-08-01T00:08:51.049Z,808.32
2017-08-01T00:08:55.500Z,808.3
2017-08-01T00:08:59.978Z,808.28
2017-08-01T00:09:04.349Z,808.26
2017-08-01T00:09:08.691Z,808.28
2017-08-01T00:09:13.147Z,808.28
2017-08-01T00:09:17.499Z,808.27
2017-08-01T00:09:21.886Z,808.22
2017-08-01T00:09:26.348Z,808.26
2017-08-01T00:09:30.688Z,808.25
2017-08-01T00:09:35.026Z,808.28
2017-08-01T00:09:39.496Z,808.28
2017-08-01T00:09:43.824Z,808.23
2017-08-01T00:09:48.279Z,808.27
2017-08-01T00:09:52.741Z,808.29
2017-08-01T00:09:57.184Z,808.27
2017-08-01T00:10:01.530Z,808.26
2017-08-01T00:10:05.552Z,808.19
2017-08-01T00:10:10.010Z,808.26
2017-08-01T00:10:14.234Z,808.25
2017-08-01T00:10:18.708Z,808.23
2017-08-01T00:10:23.190Z,808.25
2017-08-01T00:10:27.646Z,808.25
2017-08-01T00:10:32.004Z,808.19
2017-08-01T00:10:36.240Z,808.19
2017-08-01T00:10:40.709Z,808.23
2017-08-01T00:10:45.058Z,808.23
2017-08-01T00:10:49.523Z,808.21
2017-08-01T00:10:53.988Z,808.23
2017-08-01T00:10:58.222Z,808.21
2017-08-01T00:11:02.997Z,808.23
2017-08-01T00:11:07.243Z,808.21
2017-08-01T00:11:11.717Z,808.22
2017-08-01T00:11:16.087Z,808.2
2017-08-01T00:11:20.561Z,808.15
2017-08-01T00:11:24.776Z,808.2
2017-08-01T00:11:29.246Z,808.25
2017-08-01T00:11:33.715Z,808.18
2017-08-01T00:11:38.048Z,808.19
2017-08-01T00:11:42.504Z,808.17
2017-08-01T00:11:46.848Z,808.17
2017-08-01T00:11:51.329Z,808.17
2017-08-01T00:11:55.790Z,808.21
2017-08-01T00:12:00.260Z,808.19
2017-08-01T00:12:04.363Z,808.18
2017-08-01T00:12:08.709Z,808.16
2017-08-01T00:12:12.936Z,808.16
2017-08-01T00:12:17.155Z,808.14
2017-08-01T00:12:21.512Z,808.19
2017-08-01T00:12:25.858Z,808.17
2017-08-01T00:12:30.318Z,808.16
2017-08-01T00:12:34.782Z,808.16
2017-08-01T00:12:39.139Z,808.15
2017-08-01T00:12:43.599Z,808.17
2017-08-01T00:12:48.060Z,808.18
2017-08-01T00:12:52.539Z,808.17
2017-08-01T00:12:56.885Z,808.17
2017-08-01T00:13:01.349Z,808.16
2017-08-01T00:13:05.812Z,808.12
2017-08-01T00:13:10.266Z,808.15
2017-08-01T00:13:14.717Z,808.12
2017-08-01T00:13:19.178Z,808.14
2017-08-01T00:13:23.523Z,808.14
2017-08-01T00:13:27.880Z,808.15
2017-08-01T00:13:32.367Z,808.13
2017-08-01T00:13:36.822Z,808.13
2017-08-01T00:13:41.161Z,808.15
2017-08-01T00:13:45.510Z,808.12
2017-08-01T00:13:49.619Z,808.15
2017-08-01T00:13:54.075Z,808.14
2017-08-01T00:13:58.410Z,808.09
2017-08-01T00:14:02.927Z,808.13
2017-08-01T00:14:07.388Z,808.14
2017-08-01T00:14:11.856Z,808.15
2017-08-01T00:14:16.327Z,808.12
2017-08-01T00:14:20.661Z,808.14
2017-08-01T00:14:25.012Z,808.11
2017-08-01T00:14:29.486Z,808.12
2017-08-01T00:14:33.953Z,808.11
2017-08-01T00:14:38.299Z,808.11
2017-08-01T00:14:42.533Z,808.13
2017-08-01T00:14:46.866Z,808.13
2017-08-01T00:14:51.325Z,808.11
2017-08-01T00:14:55.801Z,808.09
2017-08-01T00:15:00.262Z,808.12
2017-08-01T00:15:04.760Z,808.09
2017-08-01T00:15:09.220Z,808.12
2017-08-01T00:15:13.673Z,808.11
2017-08-01T00:15:18.119Z,808.1
2017-08-01T00:15:22.470Z,808.09
2017-08-01T00:15:26.701Z,808.11
2017-08-01T00:15:31.044Z,808.11
2017-08-01T00:15:35.371Z,808.07
2017-08-01T00:15:39.627Z,808.09
2017-08-01T00:15:43.984Z,808.08
2017-08-01T00:15:48.091Z,808.11
2017-08-01T00:15:52.302Z,808.09
2017-08-01T00:15:56.764Z,808.1
2017-08-01T00:16:01.133Z,808.11
2017-08-01T00:16:05.509Z,808.1
2017-08-01T00:16:09.739Z,808.08
2017-08-01T00:16:14.209Z,808.09
2017-08-01T00:16:18.698Z,808.11
2017-08-01T00:16:23.162Z,808.08
2017-08-01T00:16:27.630Z,808.09
2017-08-01T00:16:32.103Z,808.04
2017-08-01T00:16:36.467Z,808.09
2017-08-01T00:16:40.932Z,808.09
2017-08-01T00:16:45.156Z,808.07
2017-08-01T00:16:49.617Z,808.1
2017-08-01T00:16:54.070Z,808.09
2017-08-01T00:16:58.417Z,808.09
2017-08-01T00:17:03.000Z,808.09
2017-08-01T00:17:07.465Z,808.12
2017-08-01T00:17:11.929Z,808.11
2017-08-01T00:17:16.146Z,808.03
2017-08-01T00:17:20.608Z,808.01
2017-08-01T00:17:24.947Z,808.02
2017-08-01T00:17:29.163Z,808.08
2017-08-01T00:17:33.628Z,808.03
2017-08-01T00:17:38.089Z,808.04
2017-08-01T00:17:42.559Z,808.08
2017-08-01T00:17:46.914Z,808.09
2017-08-01T00:17:51.246Z,808.07
2017-08-01T00:17:55.712Z,808.06
2017-08-01T00:18:00.186Z,808.07
2017-08-01T00:18:04.648Z,808.08
2017-08-01T00:18:09.105Z,808.1
2017-08-01T00:18:13.464Z,808.07
2017-08-01T00:18:17.713Z,808.08
2017-08-01T00:18:22.187Z,808.06
2017-08-01T00:18:26.646Z,808.07
2017-08-01T00:18:30.873Z,808.09
2017-08-01T00:18:35.343Z,808.08
2017-08-01T00:18:39.786Z,808.04
2017-08-01T00:18:44.134Z,808.11
2017-08-01T00:18:48.500Z,808.09
2017-08-01T00:18:52.965Z,808.07
2017-08-01T00:18:57.193Z,808.06
2017-08-01T00:19:01.422Z,808.1
2017-08-01T00:19:05.917Z,808.09
2017-08-01T00:19:10.382Z,808.06
2017-08-01T00:19:14.829Z,808.04
2017-08-01T00:19:19.295Z,808.08
2017-08-01T00:19:23.520Z,808.02
2017-08-01T00:19:27.735Z,808.08
2017-08-01T00:19:32.077Z,808.08
2017-08-01T00:19:36.543Z,808.08
2017-08-01T00:19:40.907Z,808.08
2017-08-01T00:19:45.371Z,808.04
2017-08-01T00:19:49.838Z,808.13
2017-08-01T00:19:54.298Z,808.09
2017-08-01T00:19:58.623Z,808.07
2017-08-01T00:20:02.871Z,808.09
2017-08-01T00:20:07.336Z,808.07
2017-08-01T00:20:11.826Z,808.05
2017-08-01T00:20:16.170Z,808.1
2017-08-01T00:20:20.625Z,808.13
2017-08-01T00:20:24.848Z,808.08
2017-08-01T00:20:29.191Z,808.11
2017-08-01T00:20:33.958Z,808.11
2017-08-01T00:20:38.416Z,808.08
2017-08-01T00:20:42.765Z,808.09
2017-08-01T00:20:47.132Z,808.07
2017-08-01T00:20:51.580Z,808.02
2017-08-01T00:20:56.049Z,808.09
2017-08-01T00:21:00.400Z,808.1
2017-08-01T00:21:04.803Z,808.08
2017-08-01T00:21:09.139Z,808.11
2017-08-01T00:21:13.593Z,808.1
2017-08-01T00:21:18.068Z,808.1
2017-08-01T00:21:22.415Z,808.11
2017-08-01T00:21:26.872Z,808.13
2017-08-01T00:21:31.343Z,808.15
2017-08-01T00:21:35.837Z,808.1
2017-08-01T00:21:40.298Z,808.13
2017-08-01T00:21:44.656Z,808.09
2017-08-01T00:21:49.142Z,808.13
2017-08-01T00:21:53.493Z,808.11
2017-08-01T00:21:57.833Z,808.14
2017-08-01T00:22:02.434Z,808.12
2017-08-01T00:22:06.810Z,808.12
2017-08-01T00:22:11.280Z,808.08
2017-08-01T00:22:15.739Z,808.11
2017-08-01T00:22:20.084Z,808.07
2017-08-01T00:22:24.552Z,808.12
2017-08-01T00:22:29.005Z,808.14
2017-08-01T00:22:33.467Z,808.12
2017-08-01T00:22:37.688Z,808.14
2017-08-01T00:22:42.027Z,808.12
2017-08-01T00:22:46.483Z,808.12
2017-08-01T00:22:50.944Z,808.07
2017-08-01T00:22:55.184Z,808.12
2017-08-01T00:22:59.650Z,808.13
2017-08-01T00:23:03.782Z,808.12
2017-08-01T00:23:08.248Z,808.15
2017-08-01T00:23:12.700Z,808.1
2017-08-01T00:23:17.063Z,808.1
2017-08-01T00:23:21.509Z,808.16
2017-08-01T00:23:25.964Z,808.13
2017-08-01T00:23:30.410Z,808.16
2017-08-01T00:23:34.647Z,808.15
2017-08-01T00:23:39.127Z,808.16
2017-08-01T00:23:43.603Z,808.13
2017-08-01T00:23:47.938Z,808.14
2017-08-01T00:23:52.270Z,808.14
2017-08-01T00:23:56.715Z,808.18
2017-08-01T00:24:01.174Z,808.13
2017-08-01T00:24:05.634Z,808.17
2017-08-01T00:24:10.107Z,808.18
2017-08-01T00:24:14.563Z,808.16
2017-08-01T00:24:18.907Z,808.16
2017-08-01T00:24:23.135Z,808.17
2017-08-01T00:24:27.492Z,808.2
2017-08-01T00:24:31.837Z,808.2
2017-08-01T00:24:36.162Z,808.17
2017-08-01T00:24:40.639Z,808.19
2017-08-01T00:24:45.133Z,808.17
2017-08-01T00:24:49.598Z,808.19
2017-08-01T00:24:53.950Z,808.19
2017-08-01T00:24:58.304Z,808.18
2017-08-01T00:25:02.768Z,808.16
2017-08-01T00:25:07.224Z,808.18
2017-08-01T00:25:11.694Z,808.23
2017-08-01T00:25:16.162Z,808.21
2017-08-01T00:25:20.505Z,808.21
2017-08-01T00:25:24.859Z,808.19
2017-08-01T00:25:28.968Z,808.2
2017-08-01T00:25:33.305Z,808.22
2017-08-01T00:25:37.781Z,808.2
2017-08-01T00:25:42.243Z,808.22
2017-08-01T00:25:46.698Z,808.2
2017-08-01T00:25:51.061Z,808.21
2017-08-01T00:25:55.526Z,808.22
2017-08-01T00:25:59.975Z,808.2
2017-08-01T00:26:04.445Z,808.23
2017-08-01T00:26:08.673Z,808.22
2017-08-01T00:26:13.144Z,808.22
2017-08-01T00:26:17.487Z,808.23
2017-08-01T00:26:21.591Z,808.24
2017-08-01T00:26:26.046Z,808.24
2017-08-01T00:26:30.506Z,808.23
2017-08-01T00:26:34.977Z,808.2
2017-08-01T00:26:39.437Z,808.22
2017-08-01T00:26:43.916Z,808.25
2017-08-01T00:26:48.252Z,808.23
2017-08-01T00:26:52.591Z,808.22
2017-08-01T00:26:57.045Z,808.28
2017-08-01T00:27:01.533Z,808.23
2017-08-01T00:27:05.970Z,808.26
2017-08-01T00:27:10.421Z,808.24
2017-08-01T00:27:14.769Z,808.25
2017-08-01T00:27:19.230Z,808.27
2017-08-01T00:27:23.710Z,808.26
2017-08-01T00:27:28.178Z,808.28
2017-08-01T00:27:32.515Z,808.26
2017-08-01T00:27:36.979Z,808.2
2017-08-01T00:27:41.424Z,808.25
2017-08-01T00:27:45.874Z,808.28
2017-08-01T00:27:50.362Z,808.29
2017-08-01T00:27:54.709Z,808.26
2017-08-01T00:27:59.070Z,808.24
2017-08-01T00:28:03.538Z,808.26
2017-08-01T00:28:08.008Z,808.26
2017-08-01T00:28:12.361Z,808.24
2017-08-01T00:28:16.582Z,808.26
2017-08-01T00:28:20.921Z,808.3
2017-08-01T00:28:25.261Z,808.28
2017-08-01T00:28:29.724Z,808.29
2017-08-01T00:28:34.191Z,808.27
2017-08-01T00:28:38.673Z,808.29
2017-08-01T00:28:43.145Z,808.27
2017-08-01T00:28:47.485Z,808.28
2017-08-01T00:28:51.820Z,808.3
2017-08-01T00:28:56.295Z,808.27
2017-08-01T00:29:00.519Z,808.28
2017-08-01T00:29:04.740Z,808.31
2017-08-01T00:29:09.218Z,808.31
2017-08-01T00:29:13.679Z,808.28
2017-08-01T00:29:18.014Z,808.25
2017-08-01T00:29:22.337Z,808.31
2017-08-01T00:29:26.787Z,808.3
2017-08-01T00:29:31.144Z,808.3
2017-08-01T00:29:35.624Z,808.29
2017-08-01T00:29:39.972Z,808.29
2017-08-01T00:29:44.416Z,808.3
2017-08-01T00:29:48.888Z,808.28
2017-08-01T00:29:53.341Z,808.31
2017-08-01T00:29:57.811Z,808.34
2017-08-01T00:30:02.164Z,808.3
2017-08-01T00:30:06.380Z,808.34
2017-08-01T00:30:10.625Z,808.32
2017-08-01T00:30:15.094Z,808.32
2017-08-01T00:30:19.432Z,808.31
2017-08-01T00:30:23.791Z,808.33
2017-08-01T00:30:28.266Z,808.33
2017-08-01T00:30:32.742Z,808.36
2017-08-01T00:30:37.200Z,808.35
2017-08-01T00:30:41.684Z,808.32
2017-08-01T00:30:46.026Z,808.34
2017-08-01T00:30:50.491Z,808.32
2017-08-01T00:30:54.842Z,808.37
2017-08-01T00:30:59.075Z,808.37
2017-08-01T00:31:03.669Z,808.34
2017-08-01T00:31:08.017Z,808.36
2017-08-01T00:31:12.472Z,808.35
2017-08-01T00:31:16.828Z,808.36
2017-08-01T00:31:21.184Z,808.37
2017-08-01T00:31:25.541Z,808.36
2017-08-01T00:31:29.873Z,808.36
2017-08-01T00:31:34.327Z,808.35
2017-08-01T00:31:38.795Z,808.33
2017-08-01T00:31:43.137Z,808.34
2017-08-01T00:31:47.471Z,808.37
2017-08-01T00:31:51.934Z,808.37
2017-08-01T00:31:56.401Z,808.38
2017-08-01T00:32:00.750Z,808.37
2017-08-01T00:32:04.992Z,808.33
2017-08-01T00:32:09.351Z,808.36
2017-08-01T00:32:13.817Z,808.37
2017-08-01T00:32:18.288Z,808.41
2017-08-01T00:32:22.510Z,808.4
2017-08-01T00:32:26.847Z,808.37
2017-08-01T00:32:31.064Z,808.38
2017-08-01T00:32:35.419Z,808.34
2017-08-01T00:32:39.883Z,808.41
2017-08-01T00:32:44.338Z,808.36
2017-08-01T00:32:48.681Z,808.38
2017-08-01T00:32:53.139Z,808.41
2017-08-01T00:32:57.369Z,808.36
2017-08-01T00:33:01.585Z,808.38
2017-08-01T00:33:05.822Z,808.39
2017-08-01T00:33:10.272Z,808.39
2017-08-01T00:33:14.613Z,808.41
2017-08-01T00:33:19.081Z,808.4
2017-08-01T00:33:23.438Z,808.41
2017-08-01T00:33:27.783Z,808.41
2017-08-01T00:33:32.129Z,808.43
2017-08-01T00:33:36.467Z,808.35
2017-08-01T00:33:40.918Z,808.43
2017-08-01T00:33:45.250Z,808.4
2017-08-01T00:33:49.730Z,808.43
2017-08-01T00:33:54.063Z,808.43
2017-08-01T00:33:58.288Z,808.4
2017-08-01T00:34:02.770Z,808.41
2017-08-01T00:34:06.872Z,808.44
2017-08-01T00:34:11.331Z,808.41
2017-08-01T00:34:15.798Z,808.41
2017-08-01T00:34:20.264Z,808.4
2017-08-01T00:34:24.611Z,808.41
2017-08-01T00:34:29.066Z,808.43
2017-08-01T00:34:33.537Z,808.43
2017-08-01T00:34:38.020Z,808.44
2017-08-01T00:34:42.358Z,808.43
2017-08-01T00:34:46.816Z,808.44
2017-08-01T00:34:51.272Z,808.47
2017-08-01T00:34:55.743Z,808.47
2017-08-01T00:35:00.198Z,808.43
2017-08-01T00:35:04.296Z,808.45
2017-08-01T00:35:08.751Z,808.42
2017-08-01T00:35:13.228Z,808.44
2017-08-01T00:35:17.695Z,808.44
2017-08-01T00:35:22.157Z,808.45
2017-08-01T00:35:26.641Z,808.42
2017-08-01T00:35:31.110Z,808.46
2017-08-01T00:35:35.382Z,808.46
2017-08-01T00:35:39.604Z,808.42
2017-08-01T00:35:44.075Z,808.46
2017-08-01T00:35:48.419Z,808.46
2017-08-01T00:35:52.882Z,808.46
2017-08-01T00:35:57.335Z,808.48
2017-08-01T00:36:01.670Z,808.44
2017-08-01T00:36:06.392Z,808.47
2017-08-01T00:36:10.740Z,808.42
2017-08-01T00:36:15.200Z,808.45
2017-08-01T00:36:19.549Z,808.48
2017-08-01T00:36:24.025Z,808.46
2017-08-01T00:36:28.492Z,808.47
2017-08-01T00:36:32.961Z,808.48
2017-08-01T00:36:37.453Z,808.49
2017-08-01T00:36:41.916Z,808.48
2017-08-01T00:36:46.374Z,808.44
2017-08-01T00:36:50.841Z,808.47
2017-08-01T00:36:55.330Z,808.44
2017-08-01T00:36:59.810Z,808.46
2017-08-01T00:37:04.039Z,808.48
2017-08-01T00:37:08.506Z,808.47
2017-08-01T00:37:12.962Z,808.48
2017-08-01T00:37:17.417Z,808.43
2017-08-01T00:37:21.888Z,808.47
2017-08-01T00:37:26.121Z,808.49
2017-08-01T00:37:30.360Z,808.51
2017-08-01T00:37:34.813Z,808.52
2017-08-01T00:37:39.271Z,808.47
2017-08-01T00:37:43.747Z,808.51
2017-08-01T00:37:48.208Z,808.48
2017-08-01T00:37:52.674Z,808.52
2017-08-01T00:37:57.144Z,808.46
2017-08-01T00:38:01.599Z,808.47
2017-08-01T00:38:05.708Z,808.48
2017-08-01T00:38:10.169Z,808.51
2017-08-01T00:38:14.630Z,808.53
2017-08-01T00:38:18.981Z,808.51
2017-08-01T00:38:23.458Z,808.53
2017-08-01T00:38:27.923Z,808.45
2017-08-01T00:38:32.381Z,808.5
2017-08-01T00:38:36.836Z,808.49
2017-08-01T00:38:41.284Z,808.51
2017-08-01T00:38:45.504Z,808.5
2017-08-01T00:38:49.980Z,808.51
2017-08-01T00:38:54.441Z,808.46
2017-08-01T00:38:58.917Z,808.5
2017-08-01T00:39:03.250Z,808.46
2017-08-01T00:39:07.616Z,808.5
2017-08-01T00:39:12.081Z,808.46
2017-08-01T00:39:16.423Z,808.48
2017-08-01T00:39:20.752Z,808.49
2017-08-01T00:39:25.222Z,808.46
2017-08-01T00:39:29.676Z,808.44
2017-08-01T00:39:34.134Z,808.39
2017-08-01T00:39:38.610Z,808.44
2017-08-01T00:39:43.066Z,808.45
2017-08-01T00:39:47.527Z,808.48
2017-08-01T00:39:51.986Z,808.49
2017-08-01T00:39:56.456Z,808.48
2017-08-01T00:40:00.946Z,808.44
2017-08-01T00:40:05.216Z,808.48
2017-08-01T00:40:09.576Z,808.5
2017-08-01T00:40:14.043Z,808.49
2017-08-01T00:40:18.390Z,808.45
2017-08-01T00:40:22.845Z,808.48
2017-08-01T00:40:27.322Z,808.43
2017-08-01T00:40:31.674Z,808.46
2017-08-01T00:40:36.160Z,808.47
2017-08-01T00:40:40.489Z,808.43
2017-08-01T00:40:44.955Z,808.46
2017-08-01T00:40:49.432Z,808.47
2017-08-01T00:40:53.885Z,808.48
2017-08-01T00:40:58.228Z,808.43
2017-08-01T00:41:02.793Z,808.49
2017-08-01T00:41:07.134Z,808.45
2017-08-01T00:41:11.483Z,808.46
2017-08-01T00:41:15.954Z,808.44
2017-08-01T00:41:20.305Z,808.49
2017-08-01T00:41:24.661Z,808.44
2017-08-01T00:41:29.115Z,808.43
2017-08-01T00:41:33.572Z,808.48
2017-08-01T00:41:38.038Z,808.49
2017-08-01T00:41:42.424Z,808.49
2017-08-01T00:41:46.776Z,808.49
2017-08-01T00:41:51.245Z,808.49
2017-08-01T00:41:55.701Z,808.48
2017-08-01T00:42:00.169Z,808.48
2017-08-01T00:42:04.594Z,808.45
2017-08-01T00:42:08.939Z,808.48
2017-08-01T00:42:13.391Z,808.48
2017-08-01T00:42:17.624Z,808.47
2017-08-01T00:42:21.979Z,808.45
2017-08-01T00:42:26.451Z,808.47
2017-08-01T00:42:30.925Z,808.47
2017-08-01T00:42:35.403Z,808.46
2017-08-01T00:42:39.863Z,808.46
2017-08-01T00:42:44.207Z,808.4
2017-08-01T00:42:48.690Z,808.44
2017-08-01T00:42:53.139Z,808.45
2017-08-01T00:42:57.593Z,808.47
2017-08-01T00:43:02.066Z,808.5
2017-08-01T00:43:06.526Z,808.48
2017-08-01T00:43:10.867Z,808.45
2017-08-01T00:43:15.315Z,808.47
2017-08-01T00:43:19.776Z,808.47
2017-08-01T00:43:24.143Z,808.46
2017-08-01T00:43:28.492Z,808.45
2017-08-01T00:43:32.853Z,808.46
2017-08-01T00:43:37.327Z,808.49
2017-08-01T00:43:41.810Z,808.45
2017-08-01T00:43:46.294Z,808.46
2017-08-01T00:43:50.766Z,808.46
2017-08-01T00:43:55.235Z,808.48
2017-08-01T00:43:59.455Z,808.48
2017-08-01T00:44:04.181Z,808.47
2017-08-01T00:44:08.521Z,808.45
2017-08-01T00:44:12.863Z,808.43
2017-08-01T00:44:17.345Z,808.47
2017-08-01T00:44:21.807Z,808.48
2017-08-01T00:44:26.248Z,808.49
2017-08-01T00:44:30.719Z,808.47
2017-08-01T00:44:35.181Z,808.49
2017-08-01T00:44:39.665Z,808.47
2017-08-01T00:44:44.015Z,808.48
2017-08-01T00:44:48.341Z,808.52
2017-08-01T00:44:52.675Z,808.45
2017-08-01T00:44:57.132Z,808.5
2017-08-01T00:45:01.471Z,808.47
2017-08-01T00:45:05.823Z,808.46
2017-08-01T00:45:10.286Z,808.48
2017-08-01T00:45:14.745Z,808.46
2017-08-01T00:45:19.205Z,808.49
2017-08-01T00:45:23.680Z,808.49
2017-08-01T00:45:28.138Z,808.48
2017-08-01T00:45:32.470Z,808.47
2017-08-01T00:45:36.932Z,808.48
2017-08-01T00:45:41.396Z,808.43
2017-08-01T00:45:45.754Z,808.5
2017-08-01T00:45:49.984Z,808.48
2017-08-01T00:45:54.464Z,808.52
2017-08-01T00:45:58.697Z,808.49
2017-08-01T00:46:03.369Z,808.46
2017-08-01T00:46:07.589Z,808.51
2017-08-01T00:46:11.922Z,808.5
2017-08-01T00:46:16.142Z,808.48
2017-08-01T00:46:20.604Z,808.46
2017-08-01T00:46:24.830Z,808.5
2017-08-01T00:46:29.193Z,808.51
2017-08-01T00:46:33.657Z,808.49
2017-08-01T00:46:38.115Z,808.49
2017-08-01T00:46:42.593Z,808.47
2017-08-01T00:46:46.944Z,808.49
2017-08-01T00:46:51.410Z,808.49
2017-08-01T00:46:55.873Z,808.53
2017-08-01T00:47:00.234Z,808.45
2017-08-01T00:47:04.708Z,808.49
2017-08-01T00:47:09.181Z,808.48
2017-08-01T00:47:13.525Z,808.49
2017-08-01T00:47:17.870Z,808.44
2017-08-01T00:47:22.338Z,808.47
2017-08-01T00:47:26.800Z,808.49
2017-08-01T00:47:31.267Z,808.48
2017-08-01T00:47:35.740Z,808.44
2017-08-01T00:47:40.198Z,808.44
2017-08-01T00:47:44.644Z,808.48
2017-08-01T00:47:48.979Z,808.46
2017-08-01T00:47:53.310Z,808.46
2017-08-01T00:47:57.632Z,808.5
2017-08-01T00:48:02.302Z,808.47
2017-08-01T00:48:06.624Z,808.44
2017-08-01T00:48:10.971Z,808.47
2017-08-01T00:48:15.465Z,808.49
2017-08-01T00:48:19.828Z,808.48
2017-08-01T00:48:24.294Z,808.5
2017-08-01T00:48:28.767Z,808.45
2017-08-01T00:48:33.227Z,808.48
2017-08-01T00:48:37.685Z,808.48
2017-08-01T00:48:42.153Z,808.5
2017-08-01T00:48:46.615Z,808.41
2017-08-01T00:48:51.088Z,808.46
2017-08-01T00:48:55.433Z,808.47
2017-08-01T00:48:59.435Z,808.46
2017-08-01T00:49:03.771Z,808.45
2017-08-01T00:49:08.232Z,808.46
2017-08-01T00:49:12.449Z,808.49
2017-08-01T00:49:16.803Z,808.47
2017-08-01T00:49:21.263Z,808.45
2017-08-01T00:49:25.616Z,808.45
2017-08-01T00:49:29.939Z,808.39
2017-08-01T00:49:34.269Z,808.47
2017-08-01T00:49:38.723Z,808.44
2017-08-01T00:49:43.077Z,808.45
2017-08-01T00:49:47.541Z,808.44
2017-08-01T00:49:51.888Z,808.44
2017-08-01T00:49:56.359Z,808.43
2017-08-01T00:50:00.827Z,808.46
2017-08-01T00:50:05.048Z,808.45
2017-08-01T00:50:09.520Z,808.43
2017-08-01T00:50:13.884Z,808.43
2017-08-01T00:50:18.358Z,808.4
2017-08-01T00:50:22.827Z,808.38
2017-08-01T00:50:27.173Z,808.39
2017-08-01T00:50:31.667Z,808.4
2017-08-01T00:50:36.124Z,808.36
2017-08-01T00:50:40.597Z,808.36
2017-08-01T00:50:44.828Z,808.4
2017-08-01T00:50:49.326Z,808.4
2017-08-01T00:50:53.803Z,808.38
2017-08-01T00:50:58.268Z,808.37
2017-08-01T00:51:02.743Z,808.37
2017-08-01T00:51:07.217Z,808.37
2017-08-01T00:51:11.574Z,808.37
2017-08-01T00:51:15.929Z,808.34
2017-08-01T00:51:20.284Z,808.37
2017-08-01T00:51:24.769Z,808.37
2017-08-01T00:51:29.217Z,808.37
2017-08-01T00:51:33.690Z,808.37
2017-08-01T00:51:37.917Z,808.34
2017-08-01T00:51:42.393Z,808.34
2017-08-01T00:51:46.742Z,808.35
2017-08-01T00:51:51.076Z,808.35
2017-08-01T00:51:55.538Z,808.32
2017-08-01T00:52:00.039Z,808.31
2017-08-01T00:52:04.232Z,808.3
2017-08-01T00:52:08.580Z,808.33
2017-08-01T00:52:12.924Z,808.31
2017-08-01T00:52:17.286Z,808.3
2017-08-01T00:52:21.742Z,808.32
2017-08-01T00:52:25.839Z,808.28
2017-08-01T00:52:29.830Z,808.3
2017-08-01T00:52:34.190Z,808.28
2017-08-01T00:52:38.538Z,808.24
2017-08-01T00:52:43.000Z,808.28
2017-08-01T00:52:47.470Z,808.3
2017-08-01T00:52:51.922Z,808.26
2017-08-01T00:52:56.375Z,808.28
2017-08-01T00:53:00.850Z,808.29
2017-08-01T00:53:05.577Z,808.26
2017-08-01T00:53:10.072Z,808.28
2017-08-01T00:53:14.537Z,808.26
2017-08-01T00:53:19.005Z,808.26
2017-08-01T00:53:23.482Z,808.22
2017-08-01T00:53:27.699Z,808.22
2017-08-01T00:53:32.171Z,808.22
2017-08-01T00:53:36.640Z,808.21
2017-08-01T00:53:41.138Z,808.21
2017-08-01T00:53:45.583Z,808.22
2017-08-01T00:53:50.054Z,808.16
2017-08-01T00:53:54.386Z,808.19
2017-08-01T00:53:58.840Z,808.19
2017-08-01T00:54:03.319Z,808.19
2017-08-01T00:54:07.779Z,808.17
2017-08-01T00:54:12.251Z,808.19
2017-08-01T00:54:16.726Z,808.18
2017-08-01T00:54:20.828Z,808.18
2017-08-01T00:54:25.073Z,808.15
2017-08-01T00:54:29.422Z,808.18
2017-08-01T00:54:33.884Z,808.17
2017-08-01T00:54:38.342Z,808.19
2017-08-01T00:54:42.810Z,808.15
2017-08-01T00:54:47.169Z,808.16
2017-08-01T00:54:51.637Z,808.16
2017-08-01T00:54:55.986Z,808.16
2017-08-01T00:55:00.456Z,808.16
2017-08-01T00:55:04.702Z,808.15